KPHP

Philip Airport

Philip, South Dakota, USA
METAR KPHP 231055Z AUTO 27006KT 10SM OVC090 M02/M03 A3006 RMK AO2 SLP197 T10221033
Observed Flight Rules
Jan-23 @ 10:55 UTC (an hour ago) Visual Flight Rules
Wind Visibility Clouds
270° at 6 knots 10 miles
  • Overcast at 9,000' AGL
Temperatures Readings
Current -2°C / 28°F
Dewpoint -3°C / 27°F
Humidity 93%
Altimeter 30.06" Hg
Pressure 1019.7 hPa
Elevation 672
METAR KPHP 231055Z AUTO 27006KT 10SM OVC090 M02/M03 A3006 RMK AO2 SLP197 T10221033
Observed Flight Rules
Jan-23 @ 10:55 UTC
(an hour ago)
VFR
Wind Visibility
270° at 6 knots 10 miles
Clouds
  • Overcast at 9,000' AGL
Temperature Dewpoint
-2°C / 28°F -3°C / 27°F
Humidity Altimeter Pressure
93% 30.06" Hg 1019.7 hPa